Time;durP1;ratioP1;P1;durP2;ratioP2;P2;SDS_P1;SDS_P2;PMS_P1;PMS_P2;Temp;Humidity;BMP_temperature;BMP_pressure;BME280_temperature;BME280_humidity;BME280_pressure;Samples;Min_cycle;Max_cycle;Signal;HPM_P1;HPM_P2
2021/04/15 00:01:29;;;;;;;13.33;11.93;;;3.80;99.90;;;;;;5034652;28;20200;-63
2021/04/15 00:03:55;;;;;;;12.80;11.10;;;3.70;99.90;;;;;;5033194;28;20206;-62
2021/04/15 00:06:28;;;;;;;13.60;12.27;;;3.70;99.90;;;;;;5034037;28;20522;-62
2021/04/15 00:08:55;;;;;;;13.50;11.40;;;3.70;99.90;;;;;;5033169;28;20412;-63
2021/04/15 00:11:29;;;;;;;14.10;11.33;;;3.70;99.90;;;;;;5033923;28;20414;-63
2021/04/15 00:13:56;;;;;;;14.33;12.83;;;3.70;99.90;;;;;;5032954;28;20458;-63
2021/04/15 00:16:23;;;;;;;12.87;11.67;;;3.60;99.90;;;;;;5033515;28;20475;-62
2021/04/15 00:18:48;;;;;;;13.83;11.43;;;3.70;99.90;;;;;;5034419;28;20407;-62
2021/04/15 00:21:15;;;;;;;15.03;11.37;;;3.60;99.90;;;;;;5033877;28;20457;-61
2021/04/15 00:23:41;;;;;;;14.20;12.80;;;3.60;99.90;;;;;;5033713;28;20213;-61
2021/04/15 00:26:10;;;;;;;14.33;12.83;;;3.60;99.90;;;;;;5033690;28;20489;-62
2021/04/15 00:28:36;;;;;;;13.00;11.60;;;3.60;99.90;;;;;;5033441;28;20412;-62
2021/04/15 00:31:03;;;;;;;15.17;12.37;;;3.60;99.90;;;;;;5033328;28;20416;-63
2021/04/15 00:33:29;;;;;;;14.67;13.00;;;3.60;99.90;;;;;;5025663;28;20453;-62
2021/04/15 00:35:54;;;;;;;14.40;12.60;;;3.60;99.90;;;;;;5023553;28;20441;-62
2021/04/15 00:38:22;;;;;;;14.73;12.43;;;3.60;99.90;;;;;;5013723;28;20189;-62
2021/04/15 00:40:49;;;;;;;16.57;13.80;;;3.50;99.90;;;;;;5033414;28;20262;-62
2021/04/15 00:43:16;;;;;;;16.20;14.57;;;3.50;99.90;;;;;;5033601;28;20452;-60
2021/04/15 00:45:44;;;;;;;13.97;12.57;;;3.50;99.90;;;;;;5032698;28;20410;-62
2021/04/15 00:48:16;;;;;;;15.63;13.60;;;3.60;99.90;;;;;;5033237;28;20459;-63
2021/04/15 00:50:50;;;;;;;15.33;13.30;;;3.60;99.90;;;;;;5029878;28;20417;-59
2021/04/15 00:53:21;;;;;;;13.00;11.60;;;3.50;99.90;;;;;;5033611;28;20792;-62
2021/04/15 00:55:48;;;;;;;14.13;12.73;;;3.50;99.90;;;;;;5033940;28;20390;-63
2021/04/15 00:58:15;;;;;;;15.37;13.73;;;3.50;99.90;;;;;;5033655;28;20416;-63
2021/04/15 01:00:42;;;;;;;15.77;14.17;;;3.50;99.90;;;;;;5032934;28;20429;-61
2021/04/15 01:03:08;;;;;;;13.93;12.53;;;3.50;99.90;;;;;;5033140;28;20918;-63
2021/04/15 01:05:39;;;;;;;16.03;14.30;;;3.40;99.90;;;;;;5033417;28;20416;-63
2021/04/15 01:08:06;;;;;;;16.27;14.53;;;3.30;99.90;;;;;;5033490;28;20727;-61
2021/04/15 01:10:35;;;;;;;13.80;12.40;;;3.40;99.90;;;;;;5033184;28;20418;-61
2021/04/15 01:13:33;;;;;;;20.90;14.60;;;3.40;99.90;;;;;;5033535;28;20444;-63
2021/04/15 02:19:59;;;;;;;14.73;13.10;;;2.80;99.90;;;;;;5032845;28;20387;-60
2021/04/15 02:22:36;;;;;;;15.03;13.43;;;2.80;99.90;;;;;;5033978;28;20469;-61
2021/04/15 02:25:29;;;;;;;14.63;13.13;;;2.90;99.90;;;;;;5036269;28;20413;-62
2021/04/15 02:28:23;;;;;;;20.60;15.03;;;2.80;99.90;;;;;;5036350;28;20412;-58
2021/04/15 02:31:08;;;;;;;15.97;13.97;;;2.80;99.90;;;;;;5035634;28;20827;-60
2021/04/15 02:33:49;;;;;;;20.77;16.87;;;2.80;99.90;;;;;;5038638;28;20427;-62
2021/04/15 02:36:16;;;;;;;15.37;13.50;;;2.70;99.90;;;;;;5029752;28;20462;-63
2021/04/15 02:38:57;;;;;;;16.30;14.60;;;2.70;99.90;;;;;;5036070;28;20409;-62
2021/04/15 02:41:27;;;;;;;17.87;15.97;;;2.80;99.90;;;;;;5035998;28;20580;-63
2021/04/15 02:44:00;;;;;;;18.83;16.93;;;2.80;99.90;;;;;;5036168;28;20464;-59
2021/04/15 02:46:42;;;;;;;18.13;16.33;;;2.70;99.90;;;;;;5036366;28;20499;-60
2021/04/15 02:49:10;;;;;;;19.10;16.00;;;2.70;99.90;;;;;;5036413;28;20385;-60
2021/04/15 02:51:52;;;;;;;18.60;16.70;;;2.70;99.90;;;;;;5035502;28;20424;-61
2021/04/15 02:54:38;;;;;;;19.37;17.33;;;2.70;99.90;;;;;;5019934;28;20779;-61
2021/04/15 02:57:36;;;;;;;20.33;18.23;;;2.60;99.90;;;;;;5016236;28;20883;-61
2021/04/15 03:00:26;;;;;;;18.87;16.93;;;2.70;99.90;;;;;;5009934;28;20926;-61
2021/04/15 03:03:01;;;;;;;20.80;18.50;;;2.60;99.90;;;;;;5015662;28;20469;-62
2021/04/15 03:05:29;;;;;;;22.30;17.93;;;2.70;99.90;;;;;;5016075;28;20429;-62
2021/04/15 03:07:59;;;;;;;20.07;17.67;;;2.60;99.90;;;;;;5016087;28;20509;-61
2021/04/15 03:10:34;;;;;;;21.13;18.40;;;2.60;99.90;;;;;;5032520;28;20820;-62
2021/04/15 03:13:14;;;;;;;23.27;19.70;;;2.60;99.90;;;;;;5035613;28;20436;-63
2021/04/15 03:15:44;;;;;;;22.87;19.53;;;2.60;99.90;;;;;;5027987;28;20785;-61
2021/04/15 03:18:22;;;;;;;20.10;17.90;;;2.60;99.90;;;;;;5035234;28;20470;-62
2021/04/15 03:20:57;;;;;;;21.83;18.33;;;2.60;99.90;;;;;;5035196;28;20434;-62
2021/04/15 03:23:56;;;;;;;20.77;17.77;;;2.70;99.90;;;;;;5017242;28;20580;-62
2021/04/15 03:26:46;;;;;;;19.07;17.10;;;2.70;99.90;;;;;;5031988;28;20433;-63
2021/04/15 03:29:31;;;;;;;21.77;17.50;;;2.60;99.90;;;;;;5029875;28;20412;-62
2021/04/15 03:32:01;;;;;;;20.50;18.30;;;2.50;99.90;;;;;;5035101;28;20390;-62
2021/04/15 03:34:35;;;;;;;20.07;17.90;;;2.50;99.90;;;;;;5017765;28;20413;-63
2021/04/15 03:37:02;;;;;;;18.33;16.27;;;2.50;99.90;;;;;;5015333;28;20389;-63
2021/04/15 03:39:35;;;;;;;19.80;17.77;;;2.60;99.90;;;;;;5016973;28;20957;-62
2021/04/15 03:42:12;;;;;;;19.60;17.50;;;2.60;99.90;;;;;;5034440;28;20972;-60
2021/04/15 03:44:46;;;;;;;20.33;18.27;;;2.60;99.90;;;;;;5034174;28;20415;-61
2021/04/15 03:47:36;;;;;;;20.33;18.20;;;2.50;99.90;;;;;;5034827;28;20407;-62
2021/04/15 03:50:17;;;;;;;21.17;18.33;;;2.50;99.90;;;;;;5035066;28;20380;-60
2021/04/15 03:52:54;;;;;;;17.63;15.00;;;2.60;99.90;;;;;;5035173;28;20789;-62
2021/04/15 03:55:43;;;;;;;18.67;16.63;;;2.60;99.90;;;;;;5027997;28;20803;-63
2021/04/15 03:58:39;;;;;;;17.70;15.80;;;2.50;99.90;;;;;;5034573;28;20415;-62
2021/04/15 04:01:19;;;;;;;16.87;15.10;;;2.50;99.90;;;;;;5032711;28;20407;-61
2021/04/15 04:03:53;;;;;;;20.40;16.87;;;2.40;99.90;;;;;;5035231;28;20467;-62
2021/04/15 04:06:22;;;;;;;19.07;16.40;;;2.30;99.90;;;;;;5034798;28;20383;-60
2021/04/15 04:09:01;;;;;;;19.10;16.60;;;2.20;99.90;;;;;;5034328;28;20951;-62
2021/04/15 04:11:32;;;;;;;17.30;15.50;;;2.20;99.90;;;;;;5034545;28;20418;-62
2021/04/15 04:14:09;;;;;;;16.53;14.83;;;2.20;99.90;;;;;;5033908;28;20765;-62
2021/04/15 04:16:43;;;;;;;16.80;14.57;;;2.20;99.90;;;;;;5034051;28;20794;-63
2021/04/15 04:19:44;;;;;;;15.60;14.00;;;2.20;99.90;;;;;;5034626;28;20534;-62
2021/04/15 04:22:10;;;;;;;17.40;15.50;;;2.30;99.90;;;;;;5034833;28;20915;-61
2021/04/15 04:24:45;;;;;;;16.07;14.43;;;2.30;99.90;;;;;;5034395;28;20419;-61
2021/04/15 04:27:28;;;;;;;15.43;13.90;;;2.30;99.90;;;;;;5036504;28;20399;-62
2021/04/15 04:30:02;;;;;;;16.43;14.77;;;2.30;99.90;;;;;;5034388;28;20441;-61
2021/04/15 04:32:29;;;;;;;16.07;14.47;;;2.40;99.90;;;;;;5034730;28;20429;-61
2021/04/15 04:35:01;;;;;;;18.50;16.50;;;2.30;99.90;;;;;;5027435;28;20460;-60
2021/04/15 04:37:43;;;;;;;19.40;17.30;;;2.40;99.90;;;;;;5047009;28;20633;-64
2021/04/15 04:40:17;;;;;;;16.23;14.67;;;2.40;99.90;;;;;;5033591;28;20509;-62
2021/04/15 04:42:47;;;;;;;16.63;14.93;;;2.40;99.90;;;;;;5014527;28;20517;-63
2021/04/15 04:45:16;;;;;;;17.03;15.23;;;2.40;99.90;;;;;;5023808;28;20424;-63
2021/04/15 04:48:00;;;;;;;17.10;15.50;;;2.40;99.90;;;;;;5036741;28;20469;-61
2021/04/15 04:51:01;;;;;;;16.87;15.07;;;2.30;99.90;;;;;;5024588;28;20837;-63
2021/04/15 04:53:53;;;;;;;17.00;15.17;;;2.30;99.90;;;;;;5018695;28;20433;-62
2021/04/15 04:56:21;;;;;;;17.67;15.87;;;2.40;99.90;;;;;;5012706;28;20408;-62
2021/04/15 04:58:59;;;;;;;14.70;13.20;;;2.30;99.90;;;;;;5029824;28;20428;-60
2021/04/15 05:01:25;;;;;;;16.87;15.07;;;2.30;99.90;;;;;;5032964;28;20461;-59
2021/04/15 05:04:00;;;;;;;15.37;13.87;;;2.40;99.90;;;;;;5033672;28;20546;-61
2021/04/15 05:06:29;;;;;;;17.07;15.27;;;2.40;99.90;;;;;;5034007;28;20179;-61
2021/04/15 05:09:18;;;;;;;19.07;17.07;;;2.40;99.90;;;;;;5033670;28;20893;-62
2021/04/15 05:11:49;;;;;;;15.50;13.90;;;2.50;99.90;;;;;;5033747;28;20400;-58
2021/04/15 05:14:19;;;;;;;16.20;14.50;;;2.40;99.90;;;;;;5029206;28;20419;-58
2021/04/15 05:16:53;;;;;;;16.60;14.90;;;2.50;99.90;;;;;;5028328;28;20426;-58
2021/04/15 05:19:19;;;;;;;18.03;16.13;;;2.40;99.90;;;;;;5015735;28;20496;-63
2021/04/15 05:21:47;;;;;;;17.10;15.30;;;2.40;99.90;;;;;;5026661;28;20449;-62
2021/04/15 05:24:35;;;;;;;17.23;15.53;;;2.50;99.90;;;;;;5033430;28;20420;-62
2021/04/15 05:27:03;;;;;;;18.37;15.33;;;2.50;99.90;;;;;;5033462;28;20439;-63
2021/04/15 05:29:33;;;;;;;18.20;16.10;;;2.60;99.90;;;;;;5033421;28;20399;-63
2021/04/15 05:31:59;;;;;;;17.33;15.37;;;2.60;99.90;;;;;;5032015;28;20416;-62
2021/04/15 05:34:29;;;;;;;16.90;15.20;;;2.50;99.90;;;;;;5019759;28;20447;-62
2021/04/15 05:36:59;;;;;;;18.90;15.13;;;2.60;99.90;;;;;;5033624;28;20404;-61
2021/04/15 05:39:25;;;;;;;14.40;13.10;;;2.60;99.90;;;;;;5033351;28;20408;-63
2021/04/15 05:41:56;;;;;;;19.50;16.23;;;2.70;99.90;;;;;;5032829;28;20494;-59
2021/04/15 05:44:31;;;;;;;17.10;15.30;;;2.80;99.90;;;;;;5032501;28;20462;-60
2021/04/15 05:46:58;;;;;;;15.83;14.13;;;2.80;99.90;;;;;;5032682;28;20396;-62
2021/04/15 05:49:29;;;;;;;15.87;14.27;;;2.90;99.90;;;;;;5033209;28;20396;-61
2021/04/15 05:52:33;;;;;;;15.47;13.93;;;2.90;99.90;;;;;;5033402;28;20422;-63
2021/04/15 05:55:06;;;;;;;21.77;18.30;;;2.90;99.90;;;;;;5024060;28;20420;-61
2021/04/15 05:57:37;;;;;;;14.23;12.60;;;3.00;99.90;;;;;;5032716;28;20415;-62
2021/04/15 06:00:14;;;;;;;11.47;10.27;;;3.20;99.90;;;;;;5032474;28;20881;-61
2021/04/15 06:02:53;;;;;;;11.40;10.40;;;3.40;99.90;;;;;;5030853;28;20473;-61
2021/04/15 06:05:24;;;;;;;9.27;8.30;;;3.50;99.90;;;;;;5033284;28;20426;-63
2021/04/15 06:07:52;;;;;;;8.50;7.70;;;3.60;99.90;;;;;;5035311;28;20402;-62
2021/04/15 06:10:24;;;;;;;9.10;8.20;;;3.70;99.90;;;;;;5036386;28;20406;-62
2021/04/15 06:13:03;;;;;;;10.20;7.80;;;3.80;99.90;;;;;;5036720;28;20467;-62
2021/04/15 06:15:41;;;;;;;12.43;8.43;;;3.80;99.90;;;;;;5035405;28;20420;-61
2021/04/15 06:18:31;;;;;;;14.20;8.23;;;3.90;99.90;;;;;;5036362;28;20749;-61
2021/04/15 06:21:04;;;;;;;7.77;6.97;;;4.10;99.90;;;;;;5017664;28;20906;-63
2021/04/15 06:23:58;;;;;;;8.80;7.83;;;4.20;99.90;;;;;;5036251;28;20422;-62
2021/04/15 06:26:33;;;;;;;7.33;6.63;;;4.30;99.90;;;;;;5035695;28;20954;-62
2021/04/15 06:29:03;;;;;;;8.87;8.07;;;4.20;99.90;;;;;;5036334;28;20429;-62
2021/04/15 06:31:42;;;;;;;8.00;7.20;;;4.20;99.90;;;;;;5035694;28;20400;-61
2021/04/15 06:34:09;;;;;;;8.23;6.83;;;4.10;99.90;;;;;;5032198;28;20424;-68
2021/04/15 06:36:57;;;;;;;14.80;7.67;;;4.10;99.90;;;;;;5032764;28;20418;-62
2021/04/15 06:39:38;;;;;;;9.27;8.47;;;4.10;99.90;;;;;;5035662;28;20425;-61
2021/04/15 06:42:34;;;;;;;9.90;8.90;;;4.00;99.90;;;;;;5020450;28;20439;-61
2021/04/15 06:45:18;;;;;;;10.83;8.87;;;4.20;99.90;;;;;;5024454;28;20501;-61
2021/04/15 06:47:56;;;;;;;8.57;7.37;;;4.30;99.90;;;;;;5036194;28;20386;-59
2021/04/15 06:51:04;;;;;;;14.83;8.17;;;4.50;99.90;;;;;;5035374;28;20898;-61
2021/04/15 06:53:56;;;;;;;19.53;10.53;;;4.40;99.90;;;;;;5025482;28;20435;-61
2021/04/15 06:56:46;;;;;;;11.40;8.07;;;4.50;99.90;;;;;;5016240;28;20453;-58
2021/04/15 06:59:32;;;;;;;17.80;8.53;;;4.40;99.90;;;;;;5015925;28;20951;-62
2021/04/15 07:02:50;;;;;;;9.37;7.60;;;4.50;99.90;;;;;;5015256;28;20497;-60
2021/04/15 07:05:20;;;;;;;8.10;6.60;;;4.80;99.90;;;;;;5006059;28;20418;-63
2021/04/15 07:08:37;;;;;;;10.00;8.20;;;4.90;99.90;;;;;;5013471;28;20782;-62
2021/04/15 07:11:25;;;;;;;10.03;8.43;;;4.90;99.90;;;;;;5000578;28;20818;-62
2021/04/15 07:14:24;;;;;;;10.37;7.90;;;5.00;99.90;;;;;;5015430;28;20423;-62
2021/04/15 07:17:05;;;;;;;7.83;7.03;;;5.20;99.90;;;;;;5032754;28;20497;-61
2021/04/15 07:19:33;;;;;;;9.80;7.97;;;5.20;99.90;;;;;;5034807;28;20398;-61
2021/04/15 07:22:27;;;;;;;7.57;6.83;;;5.40;99.90;;;;;;5030142;28;20442;-61
2021/04/15 07:25:09;;;;;;;7.43;6.73;;;5.40;99.90;;;;;;5035409;28;20386;-62
2021/04/15 07:28:04;;;;;;;8.40;7.60;;;5.40;99.90;;;;;;5035244;28;20390;-63
2021/04/15 07:31:00;;;;;;;8.90;7.10;;;5.30;99.90;;;;;;5016472;28;20410;-61
2021/04/15 07:33:35;;;;;;;8.27;6.50;;;5.50;99.90;;;;;;5034852;28;20414;-61
2021/04/15 07:36:38;;;;;;;9.33;6.90;;;5.40;99.90;;;;;;5034235;28;20504;-62
2021/04/15 07:39:22;;;;;;;8.63;6.87;;;5.40;99.90;;;;;;5035229;28;20944;-62
2021/04/15 07:42:22;;;;;;;6.87;6.13;;;5.50;99.90;;;;;;5029370;28;20457;-62
2021/04/15 07:45:07;;;;;;;9.97;6.90;;;5.60;99.90;;;;;;5034635;28;20460;-62
2021/04/15 07:48:01;;;;;;;7.97;7.17;;;5.70;99.90;;;;;;5034610;28;20393;-61
2021/04/15 07:50:38;;;;;;;10.83;6.90;;;5.80;99.90;;;;;;5035011;28;20831;-62
2021/04/15 07:53:33;;;;;;;7.23;6.47;;;5.70;99.90;;;;;;5034794;28;21076;-61
2021/04/15 07:56:44;;;;;;;6.47;5.63;;;5.80;99.90;;;;;;5010259;28;20457;-61
2021/04/15 07:59:40;;;;;;;8.43;7.63;;;5.70;99.90;;;;;;5014878;28;20403;-62
2021/04/15 08:02:35;;;;;;;7.87;7.17;;;5.70;99.90;;;;;;5029487;28;20468;-62
2021/04/15 08:05:22;;;;;;;9.23;7.63;;;5.80;99.90;;;;;;5034630;28;20489;-62
2021/04/15 08:08:00;;;;;;;8.57;7.60;;;6.00;99.90;;;;;;5034292;28;20985;-62
2021/04/15 08:10:32;;;;;;;12.00;7.13;;;6.20;99.90;;;;;;5033953;28;20774;-61
2021/04/15 08:13:21;;;;;;;7.97;6.20;;;6.30;99.90;;;;;;5034054;28;20501;-62
2021/04/15 08:15:53;;;;;;;9.40;7.27;;;6.20;99.90;;;;;;5033134;28;20410;-62
2021/04/15 08:18:23;;;;;;;10.33;6.63;;;6.20;99.90;;;;;;5034244;28;20400;-62
2021/04/15 08:21:03;;;;;;;9.13;7.43;;;6.20;99.90;;;;;;5034454;28;20402;-63
2021/04/15 08:23:43;;;;;;;9.90;8.17;;;6.00;99.90;;;;;;5033822;28;20429;-63
2021/04/15 08:26:28;;;;;;;12.97;8.03;;;6.10;99.90;;;;;;5034342;28;20416;-62
2021/04/15 08:29:05;;;;;;;12.07;7.00;;;6.40;99.90;;;;;;5034427;28;20402;-63
2021/04/15 08:31:55;;;;;;;8.13;7.43;;;6.60;99.90;;;;;;5033430;28;20389;-61
2021/04/15 08:34:23;;;;;;;8.20;7.27;;;6.60;99.90;;;;;;5030272;28;20504;-62
2021/04/15 08:37:04;;;;;;;9.17;8.03;;;6.50;99.90;;;;;;5014406;28;20537;-62
2021/04/15 08:40:07;;;;;;;10.07;8.07;;;6.30;99.90;;;;;;5023525;28;20773;-62
2021/04/15 08:43:08;;;;;;;8.40;7.40;;;6.50;99.90;;;;;;5033973;28;20450;-63
2021/04/15 08:45:51;;;;;;;9.20;6.93;;;6.70;99.90;;;;;;5017141;28;20472;-61
2021/04/15 08:48:27;;;;;;;9.53;7.43;;;6.60;99.90;;;;;;5033642;28;20445;-62
2021/04/15 08:51:11;;;;;;;7.67;6.97;;;6.60;99.90;;;;;;5017218;28;20386;-62
2021/04/15 08:53:52;;;;;;;8.07;7.00;;;6.80;99.90;;;;;;5013677;28;20411;-62
2021/04/15 08:56:26;;;;;;;7.47;6.80;;;7.00;99.40;;;;;;5013968;28;20493;-63
2021/04/15 08:59:21;;;;;;;9.40;7.97;;;7.00;98.80;;;;;;5014453;28;20391;-62
2021/04/15 09:01:57;;;;;;;8.93;8.13;;;7.20;98.30;;;;;;5013638;28;20470;-62
2021/04/15 09:05:02;;;;;;;8.67;7.40;;;7.20;98.10;;;;;;5029230;28;20426;-62
2021/04/15 09:07:36;;;;;;;10.70;7.47;;;7.10;98.30;;;;;;5012776;28;20496;-60
2021/04/15 09:10:08;;;;;;;8.80;7.90;;;7.10;98.70;;;;;;5034011;28;20503;-63
2021/04/15 09:12:57;;;;;;;8.67;7.33;;;7.20;98.40;;;;;;5033700;28;20512;-63
2021/04/15 09:15:52;;;;;;;7.93;7.13;;;7.20;97.90;;;;;;5035857;28;20456;-61
2021/04/15 09:18:29;;;;;;;8.40;7.20;;;7.40;97.70;;;;;;5033574;28;20501;-62
2021/04/15 09:21:20;;;;;;;8.63;6.80;;;7.60;97.40;;;;;;5034400;28;20400;-62
2021/04/15 09:24:00;;;;;;;9.40;5.50;;;7.80;96.00;;;;;;5034046;28;20438;-62
2021/04/15 09:27:03;;;;;;;7.23;6.53;;;7.90;95.90;;;;;;5032994;28;20878;-62
2021/04/15 09:29:38;;;;;;;6.37;5.77;;;7.80;95.80;;;;;;5026811;28;20422;-62
2021/04/15 09:32:17;;;;;;;10.23;6.80;;;7.70;95.60;;;;;;5032848;28;20386;-63
2021/04/15 09:34:55;;;;;;;8.63;7.33;;;7.90;96.30;;;;;;5026457;28;20500;-61
2021/04/15 09:37:36;;;;;;;6.20;5.53;;;8.20;96.30;;;;;;5030861;28;20417;-63
2021/04/15 09:40:08;;;;;;;8.67;5.33;;;8.40;95.40;;;;;;5032991;28;20410;-62
2021/04/15 09:42:59;;;;;;;5.83;5.23;;;8.30;94.80;;;;;;5018821;28;20944;-60
2021/04/15 09:45:39;;;;;;;10.97;7.80;;;8.50;95.30;;;;;;5036187;28;20414;-62
2021/04/15 09:48:35;;;;;;;5.50;4.10;;;8.70;93.90;;;;;;5037230;28;20394;-62
2021/04/15 09:51:09;;;;;;;4.20;3.70;;;8.70;92.30;;;;;;5035703;28;20405;-61
2021/04/15 09:54:08;;;;;;;4.97;4.57;;;9.00;91.20;;;;;;5026718;28;20185;-63
2021/04/15 09:56:40;;;;;;;4.50;4.10;;;9.40;91.40;;;;;;5030247;28;20467;-63
2021/04/15 09:59:27;;;;;;;11.37;5.00;;;9.20;91.30;;;;;;5036718;28;20973;-62
2021/04/15 10:02:05;;;;;;;6.27;3.87;;;9.40;91.20;;;;;;5035133;28;20971;-63
2021/04/15 10:04:48;;;;;;;5.90;4.40;;;9.40;90.50;;;;;;5036949;28;20405;-63
2021/04/15 10:07:25;;;;;;;4.70;4.17;;;9.40;89.60;;;;;;5037094;28;20420;-62
2021/04/15 10:10:04;;;;;;;4.63;4.07;;;9.40;90.10;;;;;;5036564;28;20773;-62
2021/04/15 10:12:38;;;;;;;4.43;3.83;;;9.40;90.20;;;;;;5036208;28;20440;-59
2021/04/15 10:15:20;;;;;;;5.90;3.60;;;9.60;88.40;;;;;;5036552;28;20770;-62
2021/04/15 10:18:10;;;;;;;5.43;3.80;;;9.80;89.60;;;;;;5036121;28;20388;-62
2021/04/15 10:21:02;;;;;;;5.60;4.30;;;10.10;85.30;;;;;;5036245;28;20396;-63
2021/04/15 10:23:36;;;;;;;8.30;4.50;;;9.80;87.30;;;;;;5036237;28;20464;-62
2021/04/15 10:26:47;;;;;;;6.27;3.90;;;9.80;88.60;;;;;;5036288;28;20427;-63
2021/04/15 10:29:45;;;;;;;7.77;5.03;;;10.10;88.30;;;;;;5022675;28;20417;-63
2021/04/15 10:32:47;;;;;;;15.90;4.70;;;9.50;91.10;;;;;;5035507;28;20880;-62
2021/04/15 10:35:33;;;;;;;7.80;4.60;;;9.20;91.80;;;;;;5034491;28;20426;-61
2021/04/15 10:38:26;;;;;;;6.63;5.13;;;9.00;92.30;;;;;;5036389;28;20480;-63
2021/04/15 10:41:17;;;;;;;7.27;4.90;;;9.20;93.10;;;;;;5035767;28;20403;-62
2021/04/15 10:44:04;;;;;;;9.83;4.50;;;9.50;92.20;;;;;;5007681;28;20804;-63
2021/04/15 10:47:12;;;;;;;8.13;5.20;;;9.00;92.40;;;;;;5024130;28;20411;-63
2021/04/15 10:49:47;;;;;;;5.13;4.63;;;8.90;92.50;;;;;;5034268;28;20492;-62
2021/04/15 10:52:31;;;;;;;5.93;4.10;;;9.40;92.00;;;;;;5026221;28;20973;-62
2021/04/15 10:55:25;;;;;;;6.40;4.70;;;10.40;90.10;;;;;;5034308;28;20494;-62
2021/04/15 10:57:52;;;;;;;6.40;4.67;;;10.60;85.60;;;;;;5030542;28;20419;-63
2021/04/15 11:00:33;;;;;;;4.53;3.83;;;9.90;87.20;;;;;;5033493;28;20403;-63
2021/04/15 11:03:20;;;;;;;5.30;4.10;;;10.00;86.80;;;;;;5028612;28;20468;-62
2021/04/15 11:05:49;;;;;;;6.10;4.60;;;9.80;87.50;;;;;;5031328;28;20424;-62
2021/04/15 11:08:30;;;;;;;5.70;4.47;;;9.50;87.50;;;;;;5040911;28;20473;-63
2021/04/15 11:11:13;;;;;;;4.70;3.93;;;9.30;87.70;;;;;;5034150;28;20772;-63
2021/04/15 11:13:39;;;;;;;8.47;3.93;;;9.60;85.50;;;;;;5026490;28;20486;-62
2021/04/15 11:16:20;;;;;;;5.43;4.23;;;10.20;82.50;;;;;;5015168;28;20456;-62
2021/04/15 11:18:46;;;;;;;5.93;4.70;;;10.90;84.30;;;;;;5015472;28;20409;-60
2021/04/15 11:21:20;;;;;;;4.27;3.87;;;10.60;82.60;;;;;;5015790;28;20406;-62
2021/04/15 11:23:48;;;;;;;6.40;4.13;;;10.60;82.10;;;;;;5015501;28;20505;-63
2021/04/15 11:26:57;;;;;;;5.10;3.70;;;10.60;83.10;;;;;;5015697;28;20395;-61
2021/04/15 11:29:40;;;;;;;4.67;3.53;;;11.50;80.60;;;;;;5025210;28;20467;-63
2021/04/15 11:32:34;;;;;;;3.97;3.40;;;10.70;79.00;;;;;;5034479;28;20760;-60
2021/04/15 11:35:16;;;;;;;3.93;3.53;;;10.40;79.20;;;;;;5034809;28;20396;-62
2021/04/15 11:37:43;;;;;;;4.40;4.00;;;10.40;80.70;;;;;;5035238;28;20435;-61
2021/04/15 11:40:33;;;;;;;3.97;3.67;;;9.70;85.10;;;;;;5034690;28;20414;-63
2021/04/15 11:43:01;;;;;;;6.50;3.40;;;9.40;83.90;;;;;;5034803;28;20529;-61
2021/04/15 11:45:35;;;;;;;4.03;3.63;;;9.00;84.80;;;;;;5035073;28;20888;-62
2021/04/15 11:48:20;;;;;;;5.47;3.60;;;9.80;84.00;;;;;;5034332;28;20943;-62
2021/04/15 11:50:49;;;;;;;4.37;3.97;;;11.40;79.20;;;;;;5034655;28;20386;-61
2021/04/15 11:53:41;;;;;;;3.90;3.60;;;11.90;77.10;;;;;;5034639;28;20423;-62
2021/04/15 11:56:17;;;;;;;10.00;3.60;;;12.80;74.80;;;;;;5034823;28;20389;-62
2021/04/15 11:58:44;;;;;;;3.77;3.47;;;13.50;71.70;;;;;;5034671;28;20390;-62
2021/04/15 12:01:10;;;;;;;5.10;3.40;;;14.80;69.20;;;;;;5033759;28;20419;-62
2021/04/15 12:03:53;;;;;;;4.40;3.57;;;14.80;67.00;;;;;;5034120;28;20547;-62
2021/04/15 12:06:20;;;;;;;7.40;3.93;;;15.50;66.00;;;;;;5034689;28;20420;-64
2021/04/15 12:08:47;;;;;;;5.10;3.03;;;17.90;58.80;;;;;;5034336;28;20416;-64
2021/04/15 12:11:20;;;;;;;4.73;3.20;;;18.10;55.90;;;;;;5034341;28;20500;-63
2021/04/15 12:14:17;;;;;;;4.37;3.00;;;17.80;53.00;;;;;;5034760;28;20429;-63
2021/04/15 12:16:58;;;;;;;2.80;2.60;;;19.20;50.10;;;;;;5024737;28;20826;-63
2021/04/15 12:19:46;;;;;;;3.90;2.70;;;18.60;47.70;;;;;;5034301;28;20382;-65
2021/04/15 12:22:23;;;;;;;3.17;2.67;;;18.50;48.10;;;;;;5034371;28;20482;-65
2021/04/15 12:24:58;;;;;;;3.17;2.50;;;18.50;46.30;;;;;;5034328;28;20410;-64
2021/04/15 12:27:27;;;;;;;3.37;3.07;;;17.50;48.00;;;;;;5033991;28;20409;-64
2021/04/15 12:30:11;;;;;;;2.87;2.60;;;18.50;49.00;;;;;;5033651;28;20962;-64
2021/04/15 12:33:06;;;;;;;3.40;3.07;;;19.20;46.20;;;;;;5033544;28;20425;-64
2021/04/15 12:35:46;;;;;;;4.70;3.33;;;17.40;48.50;;;;;;5033987;28;20405;-64
2021/04/15 12:38:27;;;;;;;4.43;2.73;;;18.50;47.90;;;;;;5034044;28;20382;-65
2021/04/15 12:41:05;;;;;;;4.00;3.17;;;19.50;45.10;;;;;;5014285;28;20398;-65
2021/04/15 12:43:45;;;;;;;4.80;3.10;;;19.80;44.50;;;;;;5013676;28;20966;-65
2021/04/15 12:46:18;;;;;;;2.93;2.73;;;17.00;44.60;;;;;;5013698;28;20406;-64
2021/04/15 12:48:45;;;;;;;3.17;2.87;;;16.10;49.50;;;;;;5014456;28;20425;-64
2021/04/15 12:51:14;;;;;;;5.07;3.53;;;17.10;48.40;;;;;;5014040;28;20421;-64
2021/04/15 12:53:43;;;;;;;3.87;3.47;;;18.30;45.80;;;;;;5014058;28;20423;-64
2021/04/15 12:56:15;;;;;;;3.90;3.60;;;19.80;45.40;;;;;;5013728;28;20784;-65
2021/04/15 12:58:41;;;;;;;3.20;3.00;;;21.10;42.70;;;;;;5013188;28;20775;-65
2021/04/15 13:01:07;;;;;;;6.10;3.43;;;20.20;43.40;;;;;;5013790;28;20163;-64
2021/04/15 13:03:36;;;;;;;3.57;3.27;;;18.30;43.80;;;;;;5013502;28;20226;-61
2021/04/15 13:06:10;;;;;;;3.87;3.37;;;16.60;46.30;;;;;;5013832;28;20407;-62
2021/04/15 13:08:48;;;;;;;4.17;3.77;;;15.20;48.50;;;;;;5015296;28;20488;-62
2021/04/15 13:11:16;;;;;;;3.77;3.47;;;14.20;50.40;;;;;;5033431;28;20394;-62
2021/04/15 13:13:59;;;;;;;3.80;3.40;;;13.10;52.00;;;;;;5033259;28;20424;-62
2021/04/15 13:16:34;;;;;;;3.87;3.37;;;12.50;53.40;;;;;;5049645;28;20898;-63
2021/04/15 13:19:23;;;;;;;6.83;3.53;;;13.30;54.20;;;;;;5053110;28;20453;-63
2021/04/15 13:22:11;;;;;;;4.30;3.30;;;14.10;54.10;;;;;;5054132;28;20476;-60
2021/04/15 13:24:46;;;;;;;5.63;3.13;;;14.60;55.00;;;;;;5053142;28;20895;-62
2021/04/15 13:27:34;;;;;;;3.73;3.30;;;14.80;55.10;;;;;;5033825;28;20426;-63
2021/04/15 13:30:21;;;;;;;3.13;2.90;;;14.90;56.10;;;;;;5031526;28;20502;-63
2021/04/15 13:33:06;;;;;;;2.90;2.70;;;15.40;54.20;;;;;;5032725;28;20940;-62
2021/04/15 13:36:02;;;;;;;3.20;2.90;;;15.90;53.80;;;;;;5033634;28;20395;-62
2021/04/15 13:41:26;;;;;;;3.80;3.50;;;15.40;53.90;;;;;;5033102;28;20470;-62
2021/04/15 13:44:03;;;;;;;3.00;2.80;;;15.00;54.40;;;;;;5033390;28;20464;-63
2021/04/15 13:46:37;;;;;;;2.93;2.60;;;16.80;52.70;;;;;;5032986;28;20381;-62
2021/04/15 13:49:09;;;;;;;4.43;3.00;;;17.90;51.00;;;;;;5033746;28;20871;-60
2021/04/15 13:51:49;;;;;;;4.83;2.47;;;18.20;47.80;;;;;;5033368;28;20401;-62
2021/04/15 13:54:16;;;;;;;3.30;3.00;;;18.90;47.70;;;;;;5032966;28;20421;-61
2021/04/15 13:56:53;;;;;;;3.30;3.03;;;19.30;46.20;;;;;;5032928;28;20398;-62
2021/04/15 13:59:52;;;;;;;3.40;2.80;;;19.20;45.10;;;;;;5033252;28;20381;-61
2021/04/15 14:02:17;;;;;;;4.30;3.57;;;18.60;45.70;;;;;;5031699;28;20469;-63
2021/04/15 14:04:53;;;;;;;3.00;2.80;;;19.00;46.20;;;;;;5032976;28;20513;-63
2021/04/15 14:07:33;;;;;;;3.80;3.50;;;18.00;46.30;;;;;;5028506;28;20521;-63
2021/04/15 14:10:05;;;;;;;3.77;3.37;;;16.50;48.50;;;;;;5028161;28;20427;-59
2021/04/15 14:12:37;;;;;;;4.50;2.87;;;15.50;49.70;;;;;;5032715;28;20431;-63
2021/04/15 14:15:22;;;;;;;4.23;3.20;;;14.80;50.80;;;;;;5032597;28;20970;-62
2021/04/15 14:17:51;;;;;;;3.87;3.57;;;14.40;49.80;;;;;;5032226;28;20393;-62
2021/04/15 14:20:39;;;;;;;4.73;3.20;;;14.30;51.00;;;;;;5032964;28;20755;-62
2021/04/15 14:23:29;;;;;;;3.97;3.47;;;13.60;52.80;;;;;;5025836;28;20467;-62
2021/04/15 14:26:19;;;;;;;7.37;3.20;;;13.80;51.80;;;;;;5032321;28;20411;-61
2021/04/15 14:28:45;;;;;;;4.87;3.27;;;14.40;51.00;;;;;;5035189;28;20440;-61
2021/04/15 14:31:16;;;;;;;4.90;3.53;;;15.80;49.90;;;;;;5036332;28;20467;-61
2021/04/15 14:33:43;;;;;;;3.93;3.30;;;17.10;48.50;;;;;;5035637;28;20425;-60
2021/04/15 14:36:31;;;;;;;4.40;4.00;;;18.00;48.10;;;;;;5018335;28;20433;-62
2021/04/15 14:39:08;;;;;;;4.17;3.30;;;17.80;48.40;;;;;;5035752;28;20452;-62
2021/04/15 14:41:34;;;;;;;4.63;4.20;;;16.20;51.00;;;;;;5035745;28;20392;-62
2021/04/15 14:44:14;;;;;;;4.80;4.23;;;15.50;52.80;;;;;;5035950;28;20441;-62
2021/04/15 14:46:41;;;;;;;5.83;4.20;;;14.70;52.40;;;;;;5035710;28;20430;-62
2021/04/15 14:49:26;;;;;;;4.67;3.97;;;13.90;55.20;;;;;;5035989;28;20467;-62
2021/04/15 14:52:06;;;;;;;4.30;3.90;;;13.50;55.70;;;;;;5035835;28;20420;-62
2021/04/15 14:54:33;;;;;;;4.20;3.90;;;13.30;56.00;;;;;;5025340;28;20434;-62